Time;durP1;ratioP1;P1;durP2;ratioP2;P2;SDS_P1;SDS_P2;PMS_P1;PMS_P2;Temp;Humidity;BMP_temperature;BMP_pressure;BME280_temperature;BME280_humidity;BME280_pressure;Samples;Min_cycle;Max_cycle;Signal;HPM_P1;HPM_P2
2021/07/31 00:00:00;;;;;;;;;;;;;;;-142.75;64.53;75794.78;5041425;28;19917;-79
2021/07/31 00:02:26;;;;;;;;;;;;;;;-142.75;64.34;75788.88;5041912;28;19916;-78
2021/07/31 00:04:51;;;;;;;;;;;;;;;-142.75;64.45;75788.88;5041239;28;19979;-78
2021/07/31 00:07:16;;;;;;;;;;;;;;;-142.75;64.70;75786.91;5042530;28;19940;-78
2021/07/31 00:09:42;;;;;;;;;;;;;;;-142.75;64.99;75800.69;5040436;28;19924;-79
2021/07/31 00:12:07;;;;;;;;;;;;;;;-142.75;65.44;75824.31;5039471;28;19921;-78
2021/07/31 00:14:32;;;;;;;;;;;;;;;-142.75;65.70;75816.44;5045000;28;19964;-78
2021/07/31 00:16:58;;;;;;;;;;;;;;;-142.75;65.76;75826.28;5039356;28;19917;-79
2021/07/31 00:19:23;;;;;;;;;;;;;;;-142.75;65.66;75812.50;5040720;28;19923;-79
2021/07/31 00:21:48;;;;;;;;;;;;;;;-142.75;65.47;75804.63;5038973;28;19998;-80
2021/07/31 00:24:13;;;;;;;;;;;;;;;-142.75;65.58;75842.03;5037936;28;20299;-78
2021/07/31 00:26:39;;;;;;;;;;;;;;;-142.75;65.89;75842.03;5042163;28;19917;-81
2021/07/31 00:29:04;;;;;;;;;;;;;;;-142.75;66.01;75847.94;5036300;28;20020;-79
2021/07/31 00:31:29;;;;;;;;;;;;;;;-142.75;66.00;75840.06;5039589;28;19971;-81
2021/07/31 00:33:54;;;;;;;;;;;;;;;-142.75;65.95;75830.22;5044446;28;20010;-79
2021/07/31 00:36:20;;;;;;;;;;;;;;;-142.75;65.84;75847.94;5054513;28;20386;-80
2021/07/31 00:38:45;;;;;;;;;;;;;;;-142.75;65.71;75838.09;5043233;28;19923;-79
2021/07/31 00:41:10;;;;;;;;;;;;;;;-142.75;65.18;75824.31;5043497;28;19923;-80
2021/07/31 00:43:35;;;;;;;;;;;;;;;-142.75;64.05;75771.16;5043229;28;19979;-80
2021/07/31 00:46:00;;;;;;;;;;;;;;;-142.75;63.08;75775.09;5040274;28;20382;-80
2021/07/31 00:48:26;;;;;;;;;;;;;;;-142.75;62.88;75757.41;5045415;28;19963;-78
2021/07/31 00:50:51;;;;;;;;;;;;;;;-142.75;63.22;75810.53;5035858;28;20067;-79
2021/07/31 00:53:16;;;;;;;;;;;;;;;-142.75;62.92;75810.53;5040067;28;19987;-80
2021/07/31 00:55:41;;;;;;;;;;;;;;;-142.75;63.32;75802.66;5053854;28;19928;-79
2021/07/31 00:58:07;;;;;;;;;;;;;;;-142.75;63.50;75806.59;5038083;28;20456;-79
2021/07/31 01:00:32;;;;;;;;;;;;;;;-142.75;63.26;75802.66;5044288;28;20275;-79
2021/07/31 01:02:57;;;;;;;;;;;;;;;-142.75;63.05;75796.75;5036914;28;20298;-79
2021/07/31 01:05:22;;;;;;;;;;;;;;;-142.75;63.03;75798.72;5040929;28;19944;-79
2021/07/31 01:07:48;;;;;;;;;;;;;;;-142.75;63.39;75818.41;5035176;28;19944;-80
2021/07/31 01:10:13;;;;;;;;;;;;;;;-142.75;62.59;75739.69;5038246;28;19964;-79
2021/07/31 01:12:39;;;;;;;;;;;;;;;-142.75;63.05;75802.66;5041428;28;19996;-81
2021/07/31 01:15:05;;;;;;;;;;;;;;;-142.75;63.23;75818.41;5036557;28;19917;-80
2021/07/31 01:17:30;;;;;;;;;;;;;;;-142.75;62.90;75804.63;5038247;28;19971;-80
2021/07/31 01:19:55;;;;;;;;;;;;;;;-142.75;62.67;75796.75;5041957;28;19924;-79
2021/07/31 01:22:20;;;;;;;;;;;;;;;-142.75;62.06;75781.00;5040180;28;19932;-80
2021/07/31 01:24:45;;;;;;;;;;;;;;;-142.75;62.07;75779.03;5046462;28;20003;-78
2021/07/31 01:27:11;;;;;;;;;;;;;;;-142.75;62.02;75786.91;5045179;28;19978;-79
2021/07/31 01:29:36;;;;;;;;;;;;;;;-142.75;61.98;75782.97;5037086;28;20439;-79
2021/07/31 01:32:01;;;;;;;;;;;;;;;-142.75;62.62;75792.81;5034678;28;19921;-78
2021/07/31 01:34:26;;;;;;;;;;;;;;;-142.75;63.20;75790.84;5035477;28;19924;-79
2021/07/31 01:36:52;;;;;;;;;;;;;;;-142.75;64.48;75806.59;5036531;28;20409;-81
2021/07/31 01:39:17;;;;;;;;;;;;;;;-142.75;65.21;75826.28;5039023;28;20410;-79
2021/07/31 01:41:42;;;;;;;;;;;;;;;-142.75;65.91;75838.09;5037777;28;20027;-78
2021/07/31 01:44:08;;;;;;;;;;;;;;;-142.75;66.39;75834.16;5034919;28;19998;-78
2021/07/31 01:46:33;;;;;;;;;;;;;;;-142.75;66.45;75838.09;5036452;28;19917;-79
2021/07/31 01:48:58;;;;;;;;;;;;;;;-142.75;66.23;75828.25;5039305;28;19921;-81
2021/07/31 01:51:23;;;;;;;;;;;;;;;-142.75;66.43;75834.16;5040396;28;19921;-81
2021/07/31 01:53:49;;;;;;;;;;;;;;;-142.75;66.79;75844.00;5040930;28;20302;-79
2021/07/31 01:56:14;;;;;;;;;;;;;;;-142.75;66.98;75838.09;5041174;28;19960;-80
2021/07/31 01:58:39;;;;;;;;;;;;;;;-142.75;67.44;75861.69;5044173;28;20446;-80
2021/07/31 02:01:04;;;;;;;;;;;;;;;-142.75;67.68;75861.69;5040120;28;20410;-78
2021/07/31 02:03:30;;;;;;;;;;;;;;;-142.75;67.78;75832.19;5040475;28;19992;-81
2021/07/31 02:05:55;;;;;;;;;;;;;;;-142.75;66.89;75798.72;5043105;28;19916;-80
2021/07/31 02:08:21;;;;;;;;;;;;;;;-142.75;66.58;75790.84;5040459;28;19917;-80
2021/07/31 02:10:46;;;;;;;;;;;;;;;-142.75;66.58;75798.72;5041106;28;19920;-81
2021/07/31 02:13:11;;;;;;;;;;;;;;;-142.75;66.61;75798.72;5044081;28;19943;-80
2021/07/31 02:15:43;;;;;;;;;;;;;;;-142.75;66.77;75802.66;5042350;28;19923;-82
2021/07/31 02:18:08;;;;;;;;;;;;;;;-142.75;66.98;75798.72;5039940;28;19917;-80
2021/07/31 02:20:34;;;;;;;;;;;;;;;-142.75;67.02;75804.63;5045647;28;19995;-80
2021/07/31 02:22:59;;;;;;;;;;;;;;;-142.75;66.97;75804.63;5044350;28;19917;-80
2021/07/31 02:25:24;;;;;;;;;;;;;;;-142.75;66.89;75804.63;5047146;28;19925;-80
2021/07/31 02:27:50;;;;;;;;;;;;;;;-142.75;66.79;75790.84;5038838;28;19939;-80
2021/07/31 02:30:15;;;;;;;;;;;;;;;-142.75;66.63;75786.91;5044680;28;19917;-78
2021/07/31 02:32:40;;;;;;;;;;;;;;;-142.75;66.34;75792.81;5042104;28;19917;-78
2021/07/31 02:35:06;;;;;;;;;;;;;;;-142.75;66.11;75790.84;5043237;28;19925;-79
2021/07/31 02:37:31;;;;;;;;;;;;;;;-142.75;66.11;75802.66;5045359;28;20495;-79
2021/07/31 02:39:56;;;;;;;;;;;;;;;-142.75;65.88;75798.72;5047037;28;19917;-79
2021/07/31 02:42:21;;;;;;;;;;;;;;;-142.75;65.73;75767.22;5043188;28;19999;-78
2021/07/31 02:44:47;;;;;;;;;;;;;;;-142.75;65.03;75771.16;5041608;28;19917;-78
2021/07/31 02:47:12;;;;;;;;;;;;;;;-142.75;64.97;75769.19;5042728;28;19929;-76
2021/07/31 02:49:37;;;;;;;;;;;;;;;-142.75;64.88;75775.09;5040224;28;19959;-78
2021/07/31 02:52:02;;;;;;;;;;;;;;;-142.75;64.66;75771.16;5067052;22;20672;-82
2021/07/31 02:54:28;;;;;;;;;;;;;;;-142.75;64.33;75781.00;5081173;28;20412;-79
2021/07/31 02:56:53;;;;;;;;;;;;;;;-142.75;64.47;75790.84;5081125;28;19923;-80
2021/07/31 02:59:18;;;;;;;;;;;;;;;-142.75;64.57;75786.91;5075654;28;19916;-80
2021/07/31 03:01:43;;;;;;;;;;;;;;;-142.75;64.56;75790.84;5087905;28;20011;-82
2021/07/31 03:04:08;;;;;;;;;;;;;;;-142.75;64.46;75782.97;5090227;28;20011;-80
2021/07/31 03:06:33;;;;;;;;;;;;;;;-142.75;63.29;75777.06;5089273;28;20388;-79
2021/07/31 03:08:59;;;;;;;;;;;;;;;-142.75;63.70;75786.91;5083893;28;19923;-79
2021/07/31 03:11:24;;;;;;;;;;;;;;;-142.75;63.63;75781.00;5083996;28;19974;-80
2021/07/31 03:13:49;;;;;;;;;;;;;;;-142.75;63.54;75798.72;5094179;28;19923;-78
2021/07/31 03:16:14;;;;;;;;;;;;;;;-142.75;63.70;75806.59;5086310;28;20011;-78
2021/07/31 03:18:41;;;;;;;;;;;;;;;-142.75;63.44;75808.56;5086902;28;19920;-80
2021/07/31 03:21:06;;;;;;;;;;;;;;;-142.75;62.72;75798.72;5086122;28;19916;-78
2021/07/31 03:23:32;;;;;;;;;;;;;;;-142.75;62.71;75826.28;5077419;28;19970;-79
2021/07/31 03:25:58;;;;;;;;;;;;;;;-142.75;62.80;75812.50;5080847;28;19920;-80
2021/07/31 03:28:24;;;;;;;;;;;;;;;-142.75;62.56;75820.38;5082591;28;19927;-79
2021/07/31 03:30:49;;;;;;;;;;;;;;;-142.75;62.69;75826.28;5091585;28;20647;-80
2021/07/31 03:33:14;;;;;;;;;;;;;;;-142.75;62.62;75824.31;5088787;28;19923;-81
2021/07/31 03:35:41;;;;;;;;;;;;;;;-142.75;62.67;75828.25;5084371;28;19939;-81
2021/07/31 03:38:06;;;;;;;;;;;;;;;-142.75;62.37;75836.13;5080965;28;20405;-79
2021/07/31 03:40:31;;;;;;;;;;;;;;;-142.75;62.41;75830.22;5081077;28;19917;-79
2021/07/31 03:42:57;;;;;;;;;;;;;;;-142.75;62.86;75838.09;5075548;28;19916;-80
2021/07/31 03:45:22;;;;;;;;;;;;;;;-142.75;62.49;75826.28;5077153;28;20341;-79
2021/07/31 03:47:47;;;;;;;;;;;;;;;-142.75;62.61;75849.91;5083697;28;19934;-79
2021/07/31 03:50:12;;;;;;;;;;;;;;;-142.75;62.24;75845.97;5088342;28;20351;-80
2021/07/31 03:52:38;;;;;;;;;;;;;;;-142.75;61.99;75845.97;5085572;28;19931;-77
2021/07/31 03:55:04;;;;;;;;;;;;;;;-142.75;61.34;75842.03;5087446;28;19916;-78
2021/07/31 03:57:29;;;;;;;;;;;;;;;-142.75;61.11;75836.13;5087652;28;19923;-78
2021/07/31 03:59:54;;;;;;;;;;;;;;;-142.75;60.81;75826.28;5092164;28;19916;-78
2021/07/31 04:02:19;;;;;;;;;;;;;;;-142.75;60.50;75842.03;5081560;28;19923;-80
2021/07/31 04:04:45;;;;;;;;;;;;;;;-142.75;60.62;75820.38;5084054;28;20014;-78
2021/07/31 04:07:10;;;;;;;;;;;;;;;-142.75;60.08;75844.00;5084590;28;19916;-81
2021/07/31 04:09:35;;;;;;;;;;;;;;;-142.75;60.40;75845.97;5094710;28;20524;-78
2021/07/31 04:12:00;;;;;;;;;;;;;;;-142.75;60.77;75859.72;5094713;28;19920;-77
2021/07/31 04:14:26;;;;;;;;;;;;;;;-142.75;60.63;75849.91;5080173;28;19916;-78
2021/07/31 04:16:51;;;;;;;;;;;;;;;-142.75;60.93;75875.47;5075455;28;21229;-79
2021/07/31 04:19:16;;;;;;;;;;;;;;;-142.75;61.25;75867.59;5082226;28;19916;-77
2021/07/31 04:21:41;;;;;;;;;;;;;;;-142.75;60.96;75871.53;5077701;28;19916;-77
2021/07/31 04:24:06;;;;;;;;;;;;;;;-142.75;60.63;75824.31;5084360;28;19969;-78
2021/07/31 04:26:32;;;;;;;;;;;;;;;-142.75;62.18;75940.44;5089952;28;20720;-77
2021/07/31 04:28:57;;;;;;;;;;;;;;;-142.75;62.49;75952.25;5091044;28;19922;-77
2021/07/31 04:31:22;;;;;;;;;;;;;;;-142.75;62.67;75938.47;5092931;28;19924;-77
2021/07/31 04:33:47;;;;;;;;;;;;;;;-142.75;62.67;75936.50;5084299;28;19989;-78
2021/07/31 04:36:12;;;;;;;;;;;;;;;-142.75;62.62;75936.50;5083520;28;19920;-78
2021/07/31 04:38:38;;;;;;;;;;;;;;;-142.75;62.21;75928.63;5073887;28;20004;-77
2021/07/31 04:41:04;;;;;;;;;;;;;;;-142.75;61.32;75924.69;5085140;28;20110;-78
2021/07/31 04:43:30;;;;;;;;;;;;;;;-142.75;61.39;75938.47;5091809;28;19916;-77
2021/07/31 04:45:55;;;;;;;;;;;;;;;-142.75;61.46;75938.47;5088037;28;19916;-77
2021/07/31 04:48:20;;;;;;;;;;;;;;;-142.75;61.31;75932.56;5082975;28;20390;-77
2021/07/31 04:50:45;;;;;;;;;;;;;;;-142.75;61.17;75944.38;5080026;28;19920;-78
2021/07/31 04:53:10;;;;;;;;;;;;;;;-142.75;60.77;75924.69;5091319;28;19916;-77
2021/07/31 04:55:35;;;;;;;;;;;;;;;-142.75;61.01;75928.63;5084321;28;20650;-78
2021/07/31 04:58:01;;;;;;;;;;;;;;;-142.75;60.85;75930.59;5073178;28;19916;-77
2021/07/31 05:00:26;;;;;;;;;;;;;;;-142.75;61.10;75928.63;5073199;28;19916;-78
2021/07/31 05:02:51;;;;;;;;;;;;;;;-142.75;61.08;75932.56;5087772;28;19916;-79
2021/07/31 05:05:16;;;;;;;;;;;;;;;-142.75;60.97;75924.69;5076042;28;19970;-79
2021/07/31 05:07:42;;;;;;;;;;;;;;;-142.75;61.28;75926.66;5093500;28;20152;-78
2021/07/31 05:10:07;;;;;;;;;;;;;;;-142.75;60.77;75906.97;5087585;28;19916;-77
2021/07/31 05:12:32;;;;;;;;;;;;;;;-142.75;60.61;75914.84;5084885;28;20011;-77
2021/07/31 05:14:57;;;;;;;;;;;;;;;-142.75;60.96;75916.81;5093414;28;19923;-77
2021/07/31 05:17:23;;;;;;;;;;;;;;;-142.75;60.45;75908.94;5078460;28;19917;-77
2021/07/31 05:19:48;;;;;;;;;;;;;;;-142.75;60.88;75912.88;5071733;28;19923;-77
2021/07/31 05:22:14;;;;;;;;;;;;;;;-142.75;60.84;75920.75;5077147;28;19948;-78
2021/07/31 05:24:39;;;;;;;;;;;;;;;-142.75;60.59;75905.00;5089635;28;19955;-77
2021/07/31 05:27:04;;;;;;;;;;;;;;;-142.75;60.68;75891.22;5076411;28;19941;-77
2021/07/31 05:29:31;;;;;;;;;;;;;;;-142.75;59.81;75887.28;5085025;28;19923;-79
2021/07/31 05:31:56;;;;;;;;;;;;;;;-142.75;59.81;75891.22;5074556;28;20015;-77
2021/07/31 05:34:21;;;;;;;;;;;;;;;-142.75;59.88;75889.25;5083208;28;20346;-77
2021/07/31 05:36:46;;;;;;;;;;;;;;;-142.75;59.88;75881.38;5078935;28;19917;-79
2021/07/31 05:39:12;;;;;;;;;;;;;;;-142.75;59.85;75869.56;5084533;28;19943;-77
2021/07/31 05:41:37;;;;;;;;;;;;;;;-142.75;59.27;75845.97;5071658;28;20003;-76
2021/07/31 05:44:02;;;;;;;;;;;;;;;-142.75;58.64;75844.00;5083944;28;19927;-77
2021/07/31 05:46:27;;;;;;;;;;;;;;;-142.75;58.67;75847.94;5095180;28;19916;-76
2021/07/31 05:48:53;;;;;;;;;;;;;;;-142.75;58.11;75849.91;5090548;28;19970;-77
2021/07/31 05:51:19;;;;;;;;;;;;;;;-142.75;58.15;75847.94;5085559;28;19920;-77
2021/07/31 05:53:44;;;;;;;;;;;;;;;-142.75;58.12;75859.72;5080570;28;20385;-78
2021/07/31 05:56:09;;;;;;;;;;;;;;;-142.75;58.31;75853.84;5088623;28;19916;-78
2021/07/31 05:58:35;;;;;;;;;;;;;;;-142.75;59.28;75845.97;5094124;28;20293;-78
2021/07/31 06:01:00;;;;;;;;;;;;;;;-142.75;59.22;75838.09;5094373;28;19916;-78
2021/07/31 06:03:25;;;;;;;;;;;;;;;-142.75;58.48;75800.69;5086419;28;19916;-79
2021/07/31 06:05:51;;;;;;;;;;;;;;;-142.75;57.88;75767.22;5090684;28;19970;-78
2021/07/31 06:08:16;;;;;;;;;;;;;;;-142.75;57.94;75775.09;5078664;28;20396;-79
2021/07/31 06:10:41;;;;;;;;;;;;;;;-142.75;57.84;75771.16;5076688;28;20011;-78
2021/07/31 06:13:06;;;;;;;;;;;;;;;-142.75;57.85;75755.44;5076674;28;20416;-77
2021/07/31 06:15:31;;;;;;;;;;;;;;;-142.75;57.76;75751.50;5078305;28;19917;-78
2021/07/31 06:17:56;;;;;;;;;;;;;;;-142.75;57.87;75753.47;5088482;28;19923;-77
2021/07/31 06:20:22;;;;;;;;;;;;;;;-142.75;57.86;75747.56;5086747;28;20007;-78
2021/07/31 06:22:47;;;;;;;;;;;;;;;-142.75;57.26;75751.50;5093853;28;19948;-77
2021/07/31 06:25:12;;;;;;;;;;;;;;;-142.75;57.66;75753.47;5089047;28;19920;-77
2021/07/31 06:27:37;;;;;;;;;;;;;;;-142.75;57.42;75761.34;5083003;28;19919;-77
2021/07/31 06:30:03;;;;;;;;;;;;;;;-142.75;56.98;75769.19;5080750;28;19920;-78
2021/07/31 06:32:28;;;;;;;;;;;;;;;-142.75;57.40;75712.13;5088205;28;19954;-77
2021/07/31 06:34:53;;;;;;;;;;;;;;;-142.75;56.08;75655.06;5084236;28;20378;-78
2021/07/31 06:37:18;;;;;;;;;;;;;;;-142.75;54.70;75590.13;5085875;28;19916;-77
2021/07/31 06:39:43;;;;;;;;;;;;;;;-142.75;53.45;75507.47;5089940;28;20297;-80
2021/07/31 06:42:09;;;;;;;;;;;;;;;-142.75;52.55;75521.22;5096018;28;19916;-77
2021/07/31 06:44:34;;;;;;;;;;;;;;;-142.75;52.09;75501.56;5083828;28;20057;-77
2021/07/31 06:46:59;;;;;;;;;;;;;;;-142.75;52.25;75479.91;5096173;28;19920;-78
2021/07/31 06:49:24;;;;;;;;;;;;;;;-142.75;50.74;75432.69;5096797;28;20446;-77
2021/07/31 06:51:51;;;;;;;;;;;;;;;-142.75;50.53;75381.50;5096054;28;19932;-78
2021/07/31 06:54:16;;;;;;;;;;;;;;;-142.75;50.95;75334.28;5084882;28;19920;-77
2021/07/31 06:56:41;;;;;;;;;;;;;;;-142.75;48.67;75255.56;5075278;28;20316;-77
2021/07/31 06:59:07;;;;;;;;;;;;;;;-142.75;47.24;75253.59;5080227;28;19916;-77
2021/07/31 07:01:32;;;;;;;;;;;;;;;-142.75;48.09;75318.53;5086989;28;20010;-78
2021/07/31 07:03:57;;;;;;;;;;;;;;;-142.75;47.74;75283.13;5094832;28;19916;-78
2021/07/31 07:06:22;;;;;;;;;;;;;;;-142.75;47.92;75294.94;5096168;28;19973;-77
2021/07/31 07:08:47;;;;;;;;;;;;;;;-142.75;48.69;75330.34;5095604;28;20385;-79
2021/07/31 07:11:14;;;;;;;;;;;;;;;-142.75;49.24;75381.50;5096417;28;20010;-77
2021/07/31 07:13:39;;;;;;;;;;;;;;;-142.75;49.82;75393.31;5094047;28;20293;-77
2021/07/31 07:16:04;;;;;;;;;;;;;;;-142.75;49.92;75450.38;5095858;28;19916;-77
2021/07/31 07:18:29;;;;;;;;;;;;;;;-142.75;51.12;75487.78;5095580;28;19916;-76
2021/07/31 07:20:55;;;;;;;;;;;;;;;-142.75;51.31;75519.25;5095367;28;20343;-76
2021/07/31 07:23:20;;;;;;;;;;;;;;;-142.75;53.16;75599.94;5093775;28;19915;-76
2021/07/31 07:25:45;;;;;;;;;;;;;;;-142.75;55.01;75672.78;5095200;28;19948;-76
2021/07/31 07:28:11;;;;;;;;;;;;;;;-142.75;56.94;75716.06;5094973;28;19939;-77
2021/07/31 07:30:36;;;;;;;;;;;;;;;-142.75;58.35;75739.69;5094906;28;19931;-75
2021/07/31 07:33:03;;;;;;;;;;;;;;;-142.75;59.39;75755.44;5096970;28;19920;-80
2021/07/31 07:35:28;;;;;;;;;;;;;;;-142.75;59.64;75755.44;5082538;28;19924;-80
2021/07/31 07:37:54;;;;;;;;;;;;;;;-142.75;59.42;75771.16;5089802;28;19916;-81
2021/07/31 07:40:19;;;;;;;;;;;;;;;-142.75;60.06;75767.22;5094271;28;20382;-81
2021/07/31 07:42:44;;;;;;;;;;;;;;;-142.75;60.03;75761.34;5095854;28;19923;-80
2021/07/31 07:45:10;;;;;;;;;;;;;;;-142.75;60.01;75767.22;5090612;28;20340;-79
2021/07/31 07:47:35;;;;;;;;;;;;;;;-142.75;60.42;75775.09;5094147;28;19995;-81
2021/07/31 07:50:04;;;;;;;;;;;;;;;-142.75;60.95;75771.16;5095164;28;19955;-81
2021/07/31 07:52:29;;;;;;;;;;;;;;;-142.75;60.63;75759.38;5086918;28;19920;-80
2021/07/31 07:54:55;;;;;;;;;;;;;;;-142.75;60.57;75784.94;5085629;28;20023;-80
2021/07/31 07:57:20;;;;;;;;;;;;;;;-142.75;61.18;75798.72;5072367;28;20301;-79
2021/07/31 07:59:45;;;;;;;;;;;;;;;-142.75;61.22;75830.22;5073250;28;19920;-82
2021/07/31 08:02:10;;;;;;;;;;;;;;;-142.75;62.19;75834.16;5073623;28;20429;-83
2021/07/31 08:04:35;;;;;;;;;;;;;;;-142.75;62.28;75855.81;5073681;28;19916;-82
2021/07/31 08:07:01;;;;;;;;;;;;;;;-142.75;62.44;75847.94;5073396;28;19964;-83
2021/07/31 08:09:26;;;;;;;;;;;;;;;-142.75;62.30;75863.66;5074821;28;19916;-83
2021/07/31 08:11:51;;;;;;;;;;;;;;;-142.75;62.74;75859.72;5087245;28;19920;-83
2021/07/31 08:14:16;;;;;;;;;;;;;;;-142.75;63.08;75836.13;5093233;28;19916;-80
2021/07/31 08:16:42;;;;;;;;;;;;;;;-142.75;63.14;75786.91;5073010;28;20034;-84
2021/07/31 08:19:09;;;;;;;;;;;;;;;-142.75;61.62;75731.81;5072652;28;19924;-80
2021/07/31 08:21:35;;;;;;;;;;;;;;;-142.75;60.77;75710.16;5072525;28;19917;-79
2021/07/31 08:24:00;;;;;;;;;;;;;;;-142.75;59.97;75731.81;5071870;28;20392;-80
2021/07/31 08:26:25;;;;;;;;;;;;;;;-142.75;60.63;75729.84;5092205;28;19947;-81
2021/07/31 08:28:50;;;;;;;;;;;;;;;-142.75;60.81;75775.09;5083906;28;20019;-83
2021/07/31 08:31:16;;;;;;;;;;;;;;;-142.75;61.12;75804.63;5087390;28;19982;-82
2021/07/31 08:33:41;;;;;;;;;;;;;;;-142.75;62.10;75844.00;5080112;28;19924;-83
2021/07/31 08:36:07;;;;;;;;;;;;;;;-142.75;62.80;75849.91;5073208;28;20389;-84
2021/07/31 08:38:33;;;;;;;;;;;;;;;-142.75;63.20;75849.91;5072396;28;19920;-81
2021/07/31 08:40:58;;;;;;;;;;;;;;;-142.75;63.37;75810.53;5071970;28;19974;-81
2021/07/31 08:43:24;;;;;;;;;;;;;;;-142.75;63.10;75782.97;5072965;28;20377;-80
2021/07/31 08:45:49;;;;;;;;;;;;;;;-142.75;63.06;75751.50;5071653;28;19951;-82
2021/07/31 08:48:15;;;;;;;;;;;;;;;-142.75;62.40;75684.56;5072053;28;19994;-82
2021/07/31 08:50:40;;;;;;;;;;;;;;;-142.75;59.82;75637.34;5071350;28;19920;-81
2021/07/31 08:53:07;;;;;;;;;;;;;;;-142.75;57.68;75536.97;5071255;28;20003;-81
2021/07/31 08:55:32;;;;;;;;;;;;;;;-142.75;59.25;75515.31;5070568;28;19954;-80
2021/07/31 08:58:01;;;;;;;;;;;;;;;-142.75;57.38;75424.81;5078157;28;19916;-80
2021/07/31 09:00:26;;;;;;;;;;;;;;;-142.75;54.26;75359.88;5072094;28;20007;-78
2021/07/31 09:02:51;;;;;;;;;;;;;;;-142.75;53.22;75385.44;5072494;28;20011;-81
2021/07/31 09:05:33;;;;;;;;;;;;;;;-142.75;53.10;75470.06;5090913;28;19916;-80
2021/07/31 09:08:00;;;;;;;;;;;;;;;-142.75;54.79;75566.50;5092229;28;19962;-81
2021/07/31 09:10:25;;;;;;;;;;;;;;;-142.75;56.60;75643.25;5092008;28;19924;-78
2021/07/31 09:12:54;;;;;;;;;;;;;;;-142.75;57.88;75678.66;5092415;28;19924;-80
2021/07/31 09:15:29;;;;;;;;;;;;;;;-142.75;58.62;75668.84;5090069;28;19924;-78
2021/07/31 09:17:54;;;;;;;;;;;;;;;-142.75;59.00;75586.19;5071491;28;19962;-80
2021/07/31 09:20:20;;;;;;;;;;;;;;;-142.75;57.73;75582.25;5071111;28;19916;-79
2021/07/31 09:22:52;;;;;;;;;;;;;;;-142.75;56.09;75611.75;5070153;28;19983;-79
2021/07/31 09:25:17;;;;;;;;;;;;;;;-142.75;56.19;75672.78;5071711;28;19927;-79
2021/07/31 09:27:42;;;;;;;;;;;;;;;-142.75;57.59;75702.28;5070131;28;20313;-78
2021/07/31 09:30:08;;;;;;;;;;;;;;;-142.75;59.70;75629.47;5073979;28;20097;-79
2021/07/31 09:32:37;;;;;;;;;;;;;;;-142.75;55.72;75464.16;5079326;28;19924;-80
2021/07/31 09:35:04;;;;;;;;;;;;;;;-142.75;53.47;75448.41;5071803;28;19970;-81
2021/07/31 09:37:29;;;;;;;;;;;;;;;-142.75;54.10;75416.94;5071261;28;19970;-81
2021/07/31 09:39:58;;;;;;;;;;;;;;;-142.75;51.39;75241.78;5072157;28;20011;-81
2021/07/31 09:42:25;;;;;;;;;;;;;;;-142.75;49.41;75141.44;5072329;28;20015;-81
2021/07/31 09:44:50;;;;;;;;;;;;;;;-142.75;49.63;75176.84;5071842;28;19916;-80
2021/07/31 09:47:16;;;;;;;;;;;;;;;-142.75;48.61;75127.66;5071786;28;19935;-81
2021/07/31 09:49:41;;;;;;;;;;;;;;;-142.75;47.68;75190.63;5071862;28;19916;-81
2021/07/31 09:52:15;;;;;;;;;;;;;;;-142.75;48.79;75283.13;5070238;28;19927;-79
2021/07/31 09:54:42;;;;;;;;;;;;;;;-142.75;49.77;75350.03;5072062;28;19928;-80
2021/07/31 09:57:07;;;;;;;;;;;;;;;-142.75;49.78;75365.75;5072476;28;20366;-81
2021/07/31 09:59:34;;;;;;;;;;;;;;;-142.75;50.31;75314.59;5072246;28;19973;-77
2021/07/31 10:02:00;;;;;;;;;;;;;;;-142.75;48.70;75271.31;5072014;28;19982;-78
2021/07/31 10:04:25;;;;;;;;;;;;;;;-142.75;47.32;75375.59;5089930;28;19986;-78
2021/07/31 10:06:50;;;;;;;;;;;;;;;-142.75;49.56;75460.22;5092793;28;19955;-79
2021/07/31 10:09:16;;;;;;;;;;;;;;;-142.75;51.62;75544.84;5093053;28;20408;-77
2021/07/31 10:11:41;;;;;;;;;;;;;;;-142.75;52.47;75438.56;5092771;28;19971;-78
2021/07/31 10:14:08;;;;;;;;;;;;;;;-142.75;49.24;75334.28;5093181;28;19951;-78
2021/07/31 10:16:34;;;;;;;;;;;;;;;-142.75;49.04;75198.50;5093223;28;19927;-78
2021/07/31 10:19:03;;;;;;;;;;;;;;;-142.75;46.88;75058.78;5093675;28;20007;-79
2021/07/31 10:21:30;;;;;;;;;;;;;;;-142.75;44.62;75011.56;5092522;28;19969;-78
2021/07/31 10:23:59;;;;;;;;;;;;;;;-142.75;43.95;74999.75;5093442;28;20394;-76
2021/07/31 10:26:24;;;;;;;;;;;;;;;-142.75;44.50;75096.19;5093156;28;19924;-78
2021/07/31 10:28:49;;;;;;;;;;;;;;;-142.75;45.84;75255.56;5093659;28;19925;-81
2021/07/31 10:31:31;;;;;;;;;;;;;;;-142.75;50.72;75464.16;5085168;28;20005;-83
2021/07/31 10:33:56;;;;;;;;;;;;;;;-142.75;53.44;75607.81;5085224;28;19946;-81
2021/07/31 10:36:32;;;;;;;;;;;;;;;-142.75;54.97;75625.53;5088468;28;20002;-81
2021/07/31 10:38:58;;;;;;;;;;;;;;;-142.75;56.05;75460.22;5084354;28;19916;-79
2021/07/31 10:41:42;;;;;;;;;;;;;;;-142.75;54.22;75259.50;5095540;28;19924;-82
2021/07/31 10:44:08;;;;;;;;;;;;;;;-142.75;49.36;75117.81;5095556;28;19920;-83
2021/07/31 10:46:33;;;;;;;;;;;;;;;-142.75;47.64;75043.03;5094663;28;19923;-80
2021/07/31 10:49:18;;;;;;;;;;;;;;;-142.75;47.05;74954.50;5089718;28;19916;-79
2021/07/31 10:51:44;;;;;;;;;;;;;;;-142.75;45.89;74964.34;5080386;28;19928;-78
2021/07/31 10:54:09;;;;;;;;;;;;;;;-142.75;45.46;75017.47;5077834;28;19962;-79
2021/07/31 10:57:07;;;;;;;;;;;;;;;-142.75;46.22;75220.16;5094845;28;19915;-78
2021/07/31 10:59:32;;;;;;;;;;;;;;;-142.75;48.85;75403.16;5049581;28;19987;-79
2021/07/31 11:02:16;;;;;;;;;;;;;;;-142.75;49.97;75485.81;5093793;28;20023;-79
2021/07/31 11:04:57;;;;;;;;;;;;;;;-142.75;51.79;75548.78;5094126;28;20564;-79
2021/07/31 11:07:25;;;;;;;;;;;;;;;-142.75;52.85;75527.13;5094068;28;19942;-79
2021/07/31 11:10:09;;;;;;;;;;;;;;;-142.75;52.16;75533.03;5094132;28;19920;-79
2021/07/31 11:12:41;;;;;;;;;;;;;;;-142.75;52.28;75558.63;5094520;28;19920;-78
2021/07/31 11:15:07;;;;;;;;;;;;;;;-142.75;53.00;75574.38;5094125;28;19916;-77
2021/07/31 11:17:33;;;;;;;;;;;;;;;-142.75;53.60;75584.22;5092961;28;19919;-77
2021/07/31 11:19:58;;;;;;;;;;;;;;;-142.75;54.29;75578.31;5093613;28;19996;-79
2021/07/31 11:22:25;;;;;;;;;;;;;;;-142.75;52.27;75460.22;5093543;28;19916;-78
2021/07/31 11:24:51;;;;;;;;;;;;;;;-142.75;50.06;75407.09;5080042;28;20023;-79
2021/07/31 11:27:16;;;;;;;;;;;;;;;-142.75;50.33;75357.91;5086729;28;20435;-79
2021/07/31 11:29:50;;;;;;;;;;;;;;;-142.75;49.30;75357.91;5094388;28;19922;-81
2021/07/31 11:32:16;;;;;;;;;;;;;;;-142.75;48.50;75320.50;5094549;28;19927;-82
2021/07/31 11:34:42;;;;;;;;;;;;;;;-142.75;47.67;75275.25;5094545;28;19917;-82
2021/07/31 11:37:08;;;;;;;;;;;;;;;-142.75;47.08;75249.66;5094113;28;19916;-82
2021/07/31 11:39:34;;;;;;;;;;;;;;;-142.75;46.98;75294.94;5095465;28;19939;-79
2021/07/31 11:41:59;;;;;;;;;;;;;;;-142.75;47.30;75342.16;5094740;28;20305;-79
2021/07/31 11:44:26;;;;;;;;;;;;;;;-142.75;48.01;75432.69;5094767;28;19923;-79
2021/07/31 11:46:52;;;;;;;;;;;;;;;-142.75;48.19;75515.31;5094684;28;19924;-77
2021/07/31 11:49:23;;;;;;;;;;;;;;;-142.75;50.34;75487.78;5094077;28;20266;-77
2021/07/31 11:51:49;;;;;;;;;;;;;;;-142.75;50.39;75458.25;5092720;28;19923;-79
2021/07/31 11:54:14;;;;;;;;;;;;;;;-142.75;49.71;75497.63;5094971;28;19916;-79
2021/07/31 11:59:08;;;;;;;;;;;;;;;-142.75;50.28;75491.72;5098900;22;20346;-80
2021/07/31 12:01:34;;;;;;;;;;;;;;;-142.75;50.89;75468.09;5083394;28;19935;-79
2021/07/31 12:03:59;;;;;;;;;;;;;;;-142.75;49.29;75481.88;5087674;28;20025;-80
2021/07/31 12:06:34;;;;;;;;;;;;;;;-142.75;49.63;75527.13;5088191;28;19927;-79
2021/07/31 12:09:18;;;;;;;;;;;;;;;-142.75;50.76;75574.38;5084196;28;19962;-80
2021/07/31 12:11:43;;;;;;;;;;;;;;;-142.75;51.71;75603.88;5080816;28;19943;-79
2021/07/31 12:14:27;;;;;;;;;;;;;;;-142.75;52.97;75623.56;5080802;28;19921;-79
2021/07/31 12:16:53;;;;;;;;;;;;;;;-142.75;53.22;75645.22;5072496;28;19966;-81
2021/07/31 12:19:18;;;;;;;;;;;;;;;-142.75;53.57;75670.81;5083275;28;19920;-79
2021/07/31 12:21:44;;;;;;;;;;;;;;;-142.75;54.62;75659.00;5085525;28;20442;-81
2021/07/31 12:24:16;;;;;;;;;;;;;;;-142.75;53.76;75627.50;5078118;28;19923;-80